createdAt,value
2019-05-26T00:00:28.124Z,7.07
2019-05-26T00:02:58.099Z,4.53
2019-05-26T00:05:28.003Z,5.33
2019-05-26T00:07:58.053Z,7.00
2019-05-26T00:10:27.985Z,3.97
2019-05-26T00:12:57.908Z,5.20
2019-05-26T00:15:27.865Z,5.57
2019-05-26T00:17:57.744Z,5.97
2019-05-26T00:20:27.638Z,7.20
2019-05-26T00:22:57.778Z,14.90
2019-05-26T00:25:27.734Z,12.70
2019-05-26T00:27:57.658Z,16.43
2019-05-26T00:30:27.682Z,5.67
2019-05-26T00:32:57.583Z,5.47
2019-05-26T00:35:27.805Z,6.57
2019-05-26T00:37:57.713Z,5.00
2019-05-26T00:40:27.688Z,6.63
2019-05-26T00:42:57.594Z,5.80
2019-05-26T00:45:27.710Z,3.90
2019-05-26T00:47:57.801Z,4.50
2019-05-26T00:50:27.822Z,6.97
2019-05-26T00:52:57.692Z,9.00
2019-05-26T00:55:27.716Z,9.17
2019-05-26T00:57:57.672Z,6.10
2019-05-26T01:00:40.979Z,6.23
2019-05-26T01:03:11.996Z,5.10
2019-05-26T01:05:42.275Z,5.20
2019-05-26T01:08:12.342Z,4.93
2019-05-26T01:10:42.463Z,4.20
2019-05-26T01:13:12.454Z,5.10
2019-05-26T01:15:42.339Z,4.47
2019-05-26T01:18:12.198Z,4.80
2019-05-26T01:20:42.078Z,4.47
2019-05-26T01:23:11.948Z,4.70
2019-05-26T01:25:41.818Z,5.47
2019-05-26T01:28:11.693Z,4.93
2019-05-26T01:30:41.731Z,4.77
2019-05-26T01:33:11.610Z,4.03
2019-05-26T01:35:43.112Z,4.53
2019-05-26T01:38:23.632Z,4.73
2019-05-26T01:40:47.061Z,4.80
2019-05-26T01:43:16.938Z,4.73
2019-05-26T01:45:46.885Z,4.70
2019-05-26T01:48:16.753Z,4.40
2019-05-26T01:50:46.631Z,4.97
2019-05-26T01:53:16.506Z,4.47
2019-05-26T01:55:46.375Z,4.30
2019-05-26T01:58:16.259Z,4.37
2019-05-26T02:00:46.122Z,4.50
2019-05-26T02:03:16.062Z,5.80
2019-05-26T02:05:46.019Z,4.33
2019-05-26T02:08:15.900Z,4.37
2019-05-26T02:10:45.776Z,4.70
2019-05-26T02:13:15.680Z,5.00
2019-05-26T02:15:45.602Z,4.93
2019-05-26T02:18:15.502Z,5.17
2019-05-26T02:20:45.402Z,4.83
2019-05-26T02:23:15.382Z,4.67
2019-05-26T02:25:45.326Z,4.97
2019-05-26T02:28:15.256Z,4.77
2019-05-26T02:30:45.199Z,4.73
2019-05-26T02:33:15.105Z,5.30
2019-05-26T02:35:45.041Z,4.70
2019-05-26T02:38:14.937Z,4.80
2019-05-26T02:40:44.861Z,5.10
2019-05-26T02:43:15.096Z,5.13
2019-05-26T02:45:44.999Z,5.23
2019-05-26T02:48:14.956Z,5.27
2019-05-26T02:50:44.873Z,5.20
2019-05-26T02:53:14.749Z,6.00
2019-05-26T02:55:44.734Z,5.07
2019-05-26T02:58:14.716Z,5.80
2019-05-26T03:00:46.499Z,4.83
2019-05-26T03:03:17.136Z,5.70
2019-05-26T03:05:48.268Z,5.77
2019-05-26T03:08:18.238Z,5.50
2019-05-26T03:10:52.166Z,5.37
2019-05-26T03:13:22.139Z,5.80
2019-05-26T03:15:54.066Z,5.60
2019-05-26T03:18:23.958Z,5.70
2019-05-26T03:20:57.133Z,5.53
2019-05-26T03:23:31.946Z,5.67
2019-05-26T03:26:02.178Z,5.87
2019-05-26T03:28:32.043Z,5.50
2019-05-26T03:31:01.997Z,5.70
2019-05-26T03:33:31.883Z,6.20
2019-05-26T03:36:01.762Z,6.33
2019-05-26T03:38:31.727Z,5.67
2019-05-26T03:41:01.617Z,6.40
2019-05-26T03:43:31.519Z,5.50
2019-05-26T03:46:21.278Z,5.73
2019-05-26T03:48:51.572Z,5.30
2019-05-26T03:51:21.781Z,5.70
2019-05-26T03:53:51.660Z,5.67
2019-05-26T03:56:21.614Z,5.37
2019-05-26T03:58:51.509Z,5.73
2019-05-26T04:01:21.449Z,5.80
2019-05-26T04:03:51.448Z,5.50
2019-05-26T04:06:21.481Z,6.40
2019-05-26T04:08:51.634Z,6.00
2019-05-26T04:11:21.501Z,5.87
2019-05-26T04:13:51.398Z,6.07
2019-05-26T04:16:21.274Z,7.03
2019-05-26T04:18:51.147Z,6.37
2019-05-26T04:21:21.039Z,6.83
2019-05-26T04:23:50.919Z,6.93
2019-05-26T04:26:20.793Z,7.03
2019-05-26T04:28:50.657Z,7.13
2019-05-26T04:31:20.550Z,6.97
2019-05-26T04:33:50.432Z,6.43
2019-05-26T04:36:20.301Z,7.07
2019-05-26T04:38:50.186Z,6.77
2019-05-26T04:41:20.056Z,6.70
2019-05-26T04:43:49.940Z,7.30
2019-05-26T04:46:19.839Z,7.07
2019-05-26T04:48:49.714Z,7.20
2019-05-26T04:51:19.608Z,7.07
2019-05-26T04:53:49.516Z,7.27
2019-05-26T04:56:19.384Z,7.30
2019-05-26T04:58:49.271Z,7.23
2019-05-26T05:01:19.141Z,10.53
2019-05-26T05:03:49.025Z,8.63
2019-05-26T05:06:18.901Z,7.00
2019-05-26T05:08:48.764Z,7.67
2019-05-26T05:11:18.634Z,7.27
2019-05-26T05:13:48.505Z,7.00
2019-05-26T05:16:18.400Z,7.00
2019-05-26T05:18:48.275Z,7.57
2019-05-26T05:21:18.147Z,8.80
2019-05-26T05:23:48.043Z,7.33
2019-05-26T05:26:17.918Z,8.00
2019-05-26T05:28:47.799Z,7.47
2019-05-26T05:31:17.666Z,7.10
2019-05-26T05:33:47.566Z,7.83
2019-05-26T05:36:17.441Z,7.57
2019-05-26T05:38:47.334Z,7.57
2019-05-26T05:41:17.242Z,7.63
2019-05-26T05:43:47.144Z,8.33
2019-05-26T05:46:17.225Z,8.30
2019-05-26T05:48:47.140Z,8.07
2019-05-26T05:51:17.034Z,7.63
2019-05-26T05:53:46.915Z,7.43
2019-05-26T05:56:17.092Z,7.63
2019-05-26T05:58:47.009Z,7.53
2019-05-26T06:01:17.141Z,7.43
2019-05-26T06:03:47.284Z,7.20
2019-05-26T06:06:17.165Z,7.40
2019-05-26T06:08:47.036Z,7.23
2019-05-26T06:11:17.442Z,6.63
2019-05-26T06:13:47.379Z,6.37
2019-05-26T06:16:17.271Z,6.23
2019-05-26T06:18:47.188Z,6.77
2019-05-26T06:21:17.131Z,6.53
2019-05-26T06:23:47.029Z,6.40
2019-05-26T06:26:16.900Z,6.37
2019-05-26T06:28:46.856Z,6.10
2019-05-26T06:31:16.729Z,5.50
2019-05-26T06:33:46.611Z,6.47
2019-05-26T06:36:16.494Z,6.13
2019-05-26T06:38:46.386Z,6.20
2019-05-26T06:41:30.396Z,5.87
2019-05-26T06:43:47.922Z,5.70
2019-05-26T06:46:17.788Z,5.50
2019-05-26T06:48:47.680Z,5.80
2019-05-26T06:51:17.564Z,6.63
2019-05-26T06:53:47.431Z,5.57
2019-05-26T06:56:17.327Z,4.73
2019-05-26T06:58:47.205Z,5.00
2019-05-26T07:01:17.121Z,4.70
2019-05-26T07:03:47.005Z,4.17
2019-05-26T07:06:16.880Z,3.97
2019-05-26T07:08:46.752Z,3.53
2019-05-26T07:11:16.654Z,4.23
2019-05-26T07:13:46.547Z,3.97
2019-05-26T07:16:16.479Z,3.93
2019-05-26T07:18:46.498Z,6.17
2019-05-26T07:21:16.395Z,4.10
2019-05-26T07:23:46.310Z,3.80
2019-05-26T07:26:16.303Z,3.67
2019-05-26T07:28:46.182Z,3.80
2019-05-26T07:31:16.071Z,3.00
2019-05-26T07:33:45.963Z,3.57
2019-05-26T07:36:16.198Z,2.90
2019-05-26T07:38:46.085Z,3.23
2019-05-26T07:41:15.991Z,2.80
2019-05-26T07:43:45.953Z,2.80
2019-05-26T07:46:15.855Z,2.60
2019-05-26T07:48:46.010Z,2.73
2019-05-26T07:51:15.895Z,3.20
2019-05-26T07:53:47.244Z,3.53
2019-05-26T07:56:17.345Z,2.97
2019-05-26T07:58:47.219Z,3.07
2019-05-26T08:01:17.112Z,3.50
2019-05-26T08:03:46.997Z,2.57
2019-05-26T08:06:16.917Z,2.80
2019-05-26T08:08:46.765Z,3.30
2019-05-26T08:11:16.660Z,2.63
2019-05-26T08:13:46.531Z,3.10
2019-05-26T08:16:16.470Z,2.80
2019-05-26T08:18:46.461Z,2.80
2019-05-26T08:21:16.374Z,2.77
2019-05-26T08:23:46.387Z,2.90
2019-05-26T08:26:16.399Z,2.53
2019-05-26T08:28:46.392Z,2.60
2019-05-26T08:31:16.318Z,2.70
2019-05-26T08:33:46.286Z,3.57
2019-05-26T08:36:16.296Z,2.77
2019-05-26T08:38:46.293Z,2.37
2019-05-26T08:41:16.229Z,2.90
2019-05-26T08:43:46.135Z,2.60
2019-05-26T08:46:16.093Z,2.80
2019-05-26T08:48:46.110Z,2.80
2019-05-26T08:51:16.030Z,3.10
2019-05-26T08:53:46.339Z,2.50
2019-05-26T08:56:16.283Z,3.13
2019-05-26T08:58:46.286Z,2.97
2019-05-26T09:01:16.234Z,3.77
2019-05-26T09:03:46.155Z,2.50
2019-05-26T09:06:16.181Z,2.57
2019-05-26T09:08:46.087Z,2.17
2019-05-26T09:11:16.017Z,2.50
2019-05-26T09:13:45.982Z,2.33
2019-05-26T09:16:15.952Z,2.40
2019-05-26T09:18:45.913Z,3.27
2019-05-26T09:21:15.990Z,2.10
2019-05-26T09:23:45.928Z,2.43
2019-05-26T09:26:16.196Z,2.40
2019-05-26T09:28:46.310Z,2.50
2019-05-26T09:31:16.281Z,2.90
2019-05-26T09:33:46.181Z,2.40
2019-05-26T09:36:16.127Z,2.57
2019-05-26T09:38:46.077Z,2.77
2019-05-26T09:41:16.007Z,2.90
2019-05-26T09:43:45.892Z,2.77
2019-05-26T09:46:15.840Z,2.67
2019-05-26T09:48:45.734Z,3.10
2019-05-26T09:51:15.685Z,2.80
2019-05-26T09:54:00.546Z,2.83
2019-05-26T09:56:17.249Z,2.73
2019-05-26T09:58:47.193Z,3.57
2019-05-26T10:01:17.375Z,2.50
2019-05-26T10:03:47.287Z,2.40
2019-05-26T10:06:17.293Z,2.40
2019-05-26T10:08:47.223Z,2.90
2019-05-26T10:11:17.221Z,3.13
2019-05-26T10:13:47.155Z,3.47
2019-05-26T10:16:17.061Z,4.50
2019-05-26T10:18:47.203Z,4.60
2019-05-26T10:21:17.172Z,3.87
2019-05-26T10:23:47.134Z,3.47
2019-05-26T10:26:17.033Z,4.57
2019-05-26T10:28:46.957Z,3.70
2019-05-26T10:31:16.976Z,3.63
2019-05-26T10:33:46.971Z,4.20
2019-05-26T10:36:16.872Z,4.37
2019-05-26T10:38:46.782Z,3.80
2019-05-26T10:41:16.696Z,4.30
2019-05-26T10:43:47.841Z,4.70
2019-05-26T10:46:18.122Z,4.17
2019-05-26T10:48:48.132Z,4.17
2019-05-26T10:51:18.133Z,4.03
2019-05-26T10:53:48.067Z,3.87
2019-05-26T10:56:18.067Z,4.13
2019-05-26T10:58:47.976Z,3.83
2019-05-26T11:01:17.985Z,4.20
2019-05-26T11:03:47.894Z,4.33
2019-05-26T11:06:17.857Z,4.20
2019-05-26T11:08:47.738Z,4.33
2019-05-26T11:11:17.629Z,3.70
2019-05-26T11:14:01.899Z,4.17
2019-05-26T11:16:19.372Z,4.47
2019-05-26T11:18:49.281Z,3.77
2019-05-26T11:21:19.212Z,3.70
2019-05-26T11:23:49.134Z,3.70
2019-05-26T11:26:19.052Z,4.10
2019-05-26T11:28:48.942Z,3.40
2019-05-26T11:31:18.865Z,3.70
2019-05-26T11:33:48.801Z,3.03
2019-05-26T11:36:18.793Z,3.73
2019-05-26T11:38:48.819Z,6.40
2019-05-26T11:41:18.791Z,3.27
2019-05-26T11:43:48.727Z,2.87
2019-05-26T11:46:18.713Z,3.10
2019-05-26T11:48:48.703Z,3.17
2019-05-26T11:51:18.675Z,3.67
2019-05-26T11:53:48.569Z,3.67
2019-05-26T11:56:18.614Z,3.30
2019-05-26T11:58:48.628Z,3.30
2019-05-26T12:01:22.507Z,3.80
2019-05-26T12:03:50.246Z,2.70
2019-05-26T12:06:20.338Z,3.17
2019-05-26T12:08:50.432Z,2.90
2019-05-26T12:11:20.435Z,2.50
2019-05-26T12:13:50.489Z,2.63
2019-05-26T12:16:20.462Z,2.90
2019-05-26T12:18:50.589Z,2.70
2019-05-26T12:21:20.525Z,3.07
2019-05-26T12:23:54.738Z,3.43
2019-05-26T12:26:22.315Z,2.87
2019-05-26T12:28:52.886Z,2.83
2019-05-26T12:31:23.159Z,3.20
2019-05-26T12:33:53.084Z,3.10
2019-05-26T12:36:23.121Z,3.20
2019-05-26T12:38:53.194Z,3.10
2019-05-26T12:41:24.146Z,3.20
2019-05-26T12:43:54.894Z,2.87
2019-05-26T12:46:24.937Z,3.20
2019-05-26T12:48:54.820Z,2.90
2019-05-26T12:51:24.703Z,3.17
2019-05-26T12:53:54.689Z,3.27
2019-05-26T12:56:24.635Z,2.70
2019-05-26T12:58:54.608Z,2.57
2019-05-26T13:01:24.507Z,2.93
2019-05-26T13:03:54.447Z,2.53
2019-05-26T13:06:24.341Z,2.83
2019-05-26T13:08:54.244Z,2.37
2019-05-26T13:11:24.159Z,2.17
2019-05-26T13:13:54.121Z,2.03
2019-05-26T13:16:24.024Z,2.67
2019-05-26T13:18:53.979Z,2.50
2019-05-26T13:21:24.140Z,2.27
2019-05-26T13:23:54.042Z,2.40
2019-05-26T13:26:24.126Z,2.40
2019-05-26T13:28:54.029Z,2.60
2019-05-26T13:31:24.029Z,2.30
2019-05-26T13:33:53.907Z,3.30
2019-05-26T13:36:23.854Z,2.40
2019-05-26T13:38:53.776Z,2.47
2019-05-26T13:41:23.705Z,2.10
2019-05-26T13:43:53.605Z,3.00
2019-05-26T13:46:23.515Z,2.40
2019-05-26T13:48:53.419Z,2.10
2019-05-26T13:51:23.424Z,3.40
2019-05-26T13:53:53.435Z,3.50
2019-05-26T13:56:23.646Z,2.27
2019-05-26T13:58:53.576Z,2.43
2019-05-26T14:01:23.562Z,2.30
2019-05-26T14:03:53.599Z,2.90
2019-05-26T14:06:23.595Z,2.87
2019-05-26T14:08:57.859Z,2.60
2019-05-26T14:11:25.177Z,1.93
2019-05-26T14:13:55.222Z,2.10
2019-05-26T14:16:29.020Z,2.50
2019-05-26T14:19:00.230Z,1.93
2019-05-26T14:21:30.119Z,2.27
2019-05-26T14:23:59.981Z,2.20
2019-05-26T14:26:29.856Z,1.83
2019-05-26T14:28:59.716Z,2.10
2019-05-26T14:31:29.748Z,2.20
2019-05-26T14:33:59.611Z,2.63
2019-05-26T14:36:29.491Z,1.57
2019-05-26T14:38:59.423Z,1.57
2019-05-26T14:41:29.324Z,2.00
2019-05-26T14:43:59.192Z,1.60
2019-05-26T14:46:29.075Z,1.70
2019-05-26T14:48:58.938Z,2.07
2019-05-26T14:51:28.818Z,2.30
2019-05-26T14:53:58.688Z,1.80
2019-05-26T14:56:28.581Z,2.10
2019-05-26T14:58:58.416Z,2.00
2019-05-26T15:01:28.313Z,1.80
2019-05-26T15:03:58.191Z,2.10
2019-05-26T15:06:28.138Z,1.70
2019-05-26T15:08:58.041Z,2.07
2019-05-26T15:11:27.942Z,2.37
2019-05-26T15:13:57.823Z,2.00
2019-05-26T15:16:27.865Z,2.00
2019-05-26T15:18:57.730Z,1.90
2019-05-26T15:21:27.612Z,2.03
2019-05-26T15:23:57.480Z,2.20
2019-05-26T15:26:27.382Z,2.20
2019-05-26T15:28:57.324Z,2.10
2019-05-26T15:31:27.279Z,2.20
2019-05-26T15:33:57.166Z,2.20
2019-05-26T15:36:27.114Z,3.20
2019-05-26T15:38:56.984Z,2.20
2019-05-26T15:41:26.914Z,2.10
2019-05-26T15:43:56.796Z,2.30
2019-05-26T15:46:26.714Z,2.40
2019-05-26T15:48:56.617Z,2.17
2019-05-26T15:51:26.695Z,2.30
2019-05-26T15:53:56.569Z,2.60
2019-05-26T15:56:26.464Z,2.10
2019-05-26T15:58:56.474Z,2.00
2019-05-26T16:01:26.526Z,2.17
2019-05-26T16:03:56.389Z,2.37
2019-05-26T16:06:26.456Z,1.80
2019-05-26T16:08:56.457Z,2.17
2019-05-26T16:11:26.402Z,1.80
2019-05-26T16:13:56.402Z,1.93
2019-05-26T16:16:40.220Z,1.77
2019-05-26T16:18:57.958Z,1.67
2019-05-26T16:21:28.555Z,1.70
2019-05-26T16:23:58.498Z,1.73
2019-05-26T16:26:28.367Z,1.57
2019-05-26T16:28:58.276Z,1.80
2019-05-26T16:31:28.417Z,1.67
2019-05-26T16:33:58.295Z,1.67
2019-05-26T16:36:28.178Z,1.90
2019-05-26T16:38:58.123Z,1.77
2019-05-26T16:41:28.036Z,1.67
2019-05-26T16:43:57.934Z,1.90
2019-05-26T16:46:27.949Z,1.47
2019-05-26T16:48:57.906Z,1.60
2019-05-26T16:51:27.880Z,1.50
2019-05-26T16:53:57.812Z,1.80
2019-05-26T16:56:27.702Z,1.67
2019-05-26T16:58:57.640Z,1.70
2019-05-26T17:01:27.510Z,2.60
2019-05-26T17:03:57.485Z,2.23
2019-05-26T17:06:27.571Z,2.10
2019-05-26T17:08:57.460Z,1.70
2019-05-26T17:11:27.499Z,2.50
2019-05-26T17:13:57.433Z,1.70
2019-05-26T17:16:27.399Z,8.13
2019-05-26T17:18:57.310Z,8.73
2019-05-26T17:21:27.179Z,9.67
2019-05-26T17:23:57.137Z,2.80
2019-05-26T17:26:27.571Z,3.27
2019-05-26T17:28:57.443Z,4.33
2019-05-26T17:31:27.316Z,3.97
2019-05-26T17:33:57.339Z,1.97
2019-05-26T17:36:27.211Z,2.27
2019-05-26T17:38:57.095Z,5.47
2019-05-26T17:41:27.034Z,2.40
2019-05-26T17:43:56.957Z,3.20
2019-05-26T17:46:26.862Z,1.60
2019-05-26T17:48:57.035Z,11.57
2019-05-26T17:51:27.061Z,25.67
2019-05-26T17:53:57.043Z,18.47
2019-05-26T17:56:26.907Z,7.63
2019-05-26T17:58:56.793Z,7.80
2019-05-26T18:01:26.730Z,2.77
2019-05-26T18:03:56.609Z,7.23
2019-05-26T18:06:26.512Z,4.97
2019-05-26T18:08:56.592Z,12.53
2019-05-26T18:11:26.464Z,9.03
2019-05-26T18:13:56.367Z,3.30
2019-05-26T18:16:26.267Z,3.33
2019-05-26T18:18:56.132Z,2.97
2019-05-26T18:21:26.007Z,10.40
2019-05-26T18:23:55.902Z,5.73
2019-05-26T18:26:25.778Z,2.73
2019-05-26T18:28:55.680Z,2.10
2019-05-26T18:31:28.945Z,1.90
2019-05-26T18:33:57.294Z,2.20
2019-05-26T18:36:27.174Z,2.60
2019-05-26T18:38:57.057Z,2.20
2019-05-26T18:41:26.959Z,3.20
2019-05-26T18:43:56.855Z,2.90
2019-05-26T18:46:26.911Z,2.37
2019-05-26T18:48:56.806Z,3.17
2019-05-26T18:51:26.701Z,3.07
2019-05-26T18:53:56.624Z,2.27
2019-05-26T18:56:26.735Z,2.53
2019-05-26T18:58:56.648Z,2.33
2019-05-26T19:01:26.623Z,2.20
2019-05-26T19:03:56.685Z,2.80
2019-05-26T19:06:26.651Z,2.00
2019-05-26T19:08:56.567Z,9.60
2019-05-26T19:11:26.541Z,4.47
2019-05-26T19:13:56.438Z,3.20
2019-05-26T19:16:26.317Z,2.83
2019-05-26T19:18:56.209Z,3.07
2019-05-26T19:21:26.248Z,3.00
2019-05-26T19:23:56.241Z,3.37
2019-05-26T19:26:26.118Z,4.10
2019-05-26T19:28:56.100Z,4.93
2019-05-26T19:31:26.187Z,4.87
2019-05-26T19:33:56.058Z,4.10
2019-05-26T19:36:25.966Z,6.23
2019-05-26T19:38:55.924Z,3.33
2019-05-26T19:41:25.817Z,3.50
2019-05-26T19:43:55.974Z,3.73
2019-05-26T19:46:25.852Z,3.10
2019-05-26T19:48:55.788Z,4.80
2019-05-26T19:51:25.791Z,3.33
2019-05-26T19:53:55.655Z,3.63
2019-05-26T19:56:25.625Z,3.87
2019-05-26T19:58:55.537Z,2.70
2019-05-26T20:01:25.431Z,2.50
2019-05-26T20:03:55.550Z,3.80
2019-05-26T20:06:25.537Z,2.87
2019-05-26T20:08:55.534Z,2.27
2019-05-26T20:11:25.674Z,2.40
2019-05-26T20:13:55.554Z,2.23
2019-05-26T20:16:25.899Z,2.10
2019-05-26T20:18:55.783Z,2.50
2019-05-26T20:21:25.698Z,3.07
2019-05-26T20:23:55.723Z,2.80
2019-05-26T20:26:25.856Z,2.40
2019-05-26T20:28:55.741Z,2.50
2019-05-26T20:31:25.736Z,2.10
2019-05-26T20:33:55.672Z,2.50
2019-05-26T20:36:25.602Z,2.63
2019-05-26T20:38:55.512Z,3.07
2019-05-26T20:41:25.406Z,2.60
2019-05-26T20:43:55.331Z,2.90
2019-05-26T20:46:25.310Z,2.93
2019-05-26T20:48:55.302Z,3.03
2019-05-26T20:51:25.249Z,2.50
2019-05-26T20:53:55.124Z,2.47
2019-05-26T20:56:25.020Z,2.87
2019-05-26T20:58:55.004Z,2.73
2019-05-26T21:01:25.415Z,3.43
2019-05-26T21:03:55.320Z,2.67
2019-05-26T21:06:25.320Z,2.90
2019-05-26T21:08:55.264Z,2.50
2019-05-26T21:11:25.320Z,2.60
2019-05-26T21:13:56.988Z,2.40
2019-05-26T21:16:27.083Z,2.10
2019-05-26T21:18:57.035Z,2.90
2019-05-26T21:21:27.494Z,3.10
2019-05-26T21:23:57.805Z,3.03
2019-05-26T21:26:27.733Z,2.70
2019-05-26T21:28:57.637Z,3.47
2019-05-26T21:31:28.202Z,3.00
2019-05-26T21:33:58.110Z,3.17
2019-05-26T21:36:28.059Z,2.63
2019-05-26T21:38:58.546Z,3.20
2019-05-26T21:41:28.434Z,3.00
2019-05-26T21:43:58.400Z,4.27
2019-05-26T21:46:28.308Z,2.53
2019-05-26T21:48:58.529Z,3.10
2019-05-26T21:51:28.423Z,2.30
2019-05-26T21:53:58.305Z,2.97
2019-05-26T21:56:28.208Z,2.73
2019-05-26T21:58:58.109Z,3.70
2019-05-26T22:01:28.575Z,3.20
2019-05-26T22:03:58.486Z,2.50
2019-05-26T22:06:28.427Z,2.80
2019-05-26T22:08:58.372Z,2.67
2019-05-26T22:11:28.639Z,3.17
2019-05-26T22:13:58.782Z,2.80
2019-05-26T22:16:28.884Z,2.50
2019-05-26T22:19:00.236Z,3.20
2019-05-26T22:21:30.272Z,3.17
2019-05-26T22:24:00.156Z,3.43
2019-05-26T22:26:30.164Z,4.07
2019-05-26T22:29:00.472Z,3.47
2019-05-26T22:31:30.429Z,3.07
2019-05-26T22:34:00.381Z,3.30
2019-05-26T22:36:30.339Z,3.47
2019-05-26T22:39:00.270Z,2.77
2019-05-26T22:41:30.214Z,3.17
2019-05-26T22:44:00.086Z,2.80
2019-05-26T22:46:31.360Z,3.30
2019-05-26T22:49:01.375Z,3.43
2019-05-26T22:51:31.593Z,10.63
2019-05-26T22:54:01.993Z,3.80
2019-05-26T22:56:31.899Z,3.40
2019-05-26T22:59:02.158Z,3.47
2019-05-26T23:01:32.139Z,3.60
2019-05-26T23:04:03.281Z,2.73
2019-05-26T23:06:33.761Z,2.73
2019-05-26T23:09:03.956Z,2.43
2019-05-26T23:11:33.890Z,3.00
2019-05-26T23:14:03.868Z,3.13
2019-05-26T23:16:33.915Z,3.07
2019-05-26T23:19:18.338Z,2.87
2019-05-26T23:21:35.562Z,3.07
2019-05-26T23:24:05.578Z,3.10
2019-05-26T23:26:35.508Z,3.07
2019-05-26T23:29:05.774Z,2.70
2019-05-26T23:31:35.703Z,3.33
2019-05-26T23:34:05.731Z,3.00
2019-05-26T23:36:35.590Z,2.83
2019-05-26T23:39:06.888Z,3.23
2019-05-26T23:41:36.800Z,3.07
2019-05-26T23:44:06.689Z,3.20
2019-05-26T23:46:36.665Z,2.90
2019-05-26T23:49:06.802Z,2.80
2019-05-26T23:51:36.684Z,3.30
2019-05-26T23:54:06.759Z,3.10
2019-05-26T23:56:36.672Z,3.13
2019-05-26T23:59:06.596Z,3.17
